Meteo Giornale » Osservazioni meteo Italia » Venezia-Tessera

ore: 14:50 - Osservazioni Meteo Venezia-Tessera
Lat. 45° 30' N Lon. 12° 20' E Alt. 2 metri s.l.m.

poco_nuvoloso Europe/Rome

25 °C

Poco Nuvoloso

Temp. 24 Ore

15 °C

25 °C

Sud

7.4 Km/h

Dew point 8 °C

Umidità 33 %

Visibilità  10 Km

Il sole sorge alle ore 05:23

Il sole tramonta alle ore 20:54

Data e Ora Cielo e Fenomeni T °C DP °C Um. % Pres. hPa Vis. km Vento km/h
Oggi h: 14:50 poco_nuvoloso Poco Nuvoloso 25 8 33 1017 10 S 7.4
Oggi h: 14:20 poco_nuvoloso Poco Nuvoloso 24 9 38 1017 10 S 7.4
Oggi h: 13:50 poco_nuvoloso Poco Nuvoloso 25 11 41 1017 10 S 7.4
Oggi h: 13:20 poco_nuvoloso Poco Nuvoloso 23 11 46 1017 10 S 11.1
Oggi h: 12:50 poco_nuvoloso Poco Nuvoloso 23 11 46 1017 10 S 11.1
Oggi h: 12:20 sereno Sereno 23 11 46 1017 10 S 11.1
Oggi h: 11:20 sereno Sereno 22 11 49 1017 10 S/SE 9.3
Oggi h: 10:50 sereno Sereno 22 12 53 1017 10 S/SE 9.3
Oggi h: 10:20 sereno Sereno 21 12 56 1017 10 SE 7.4
Oggi h: 09:50 sereno Sereno 21 10 49 1017 10 N 5.5
Oggi h: 09:20 sereno Sereno 21 11 52 1017 10 N/NO 7.4
Oggi h: 07:50 sereno Sereno 18 11 63 1017 10 O/NO 7.4
Oggi h: 07:20 sereno Sereno 16 11 72 1017 10 N 3.7
Oggi h: 06:50 poco_nuvoloso Poco Nuvoloso 15 11 76 1017 10 NO 9.3
Oggi h: 05:50 poco_nuvoloso Poco Nuvoloso 15 10 72 1017 10 O 9.3
Oggi h: 05:20 poco_nuvoloso Poco Nuvoloso 15 12 82 1017 10 N 5.5
Oggi h: 04:50 nuvoloso Nuvoloso 16 12 77 1017 10 N 3.7
Oggi h: 04:20 molto_nuvoloso Molto Nuvoloso 15 12 82 1017 10 O 7.4
Oggi h: 03:50 nuvoloso Nuvoloso 16 12 77 1017 10 N 5.5
Oggi h: 03:20 nuvoloso Nuvoloso 16 12 77 1017 10 N 5.5
Oggi h: 02:50 molto_nuvoloso Molto Nuvoloso 16 11 72 1017 10 NO 9.3
Oggi h: 02:20 molto_nuvoloso Molto Nuvoloso 17 12 72 1017 10 N/NO 9.3
Oggi h: 01:50 molto_nuvoloso Molto Nuvoloso 17 12 72 1017 10 NO 7.4
Oggi h: 01:20 molto_nuvoloso Molto Nuvoloso 19 11 59 1017 10 N 3.7
Oggi h: 00:20 molto_nuvoloso Molto Nuvoloso 19 11 59 1016 10 N 5.5
Ieri h: 23:50 molto_nuvoloso Molto Nuvoloso 19 11 59 1016 10 N 3.7
Ieri h: 22:50 sereno Sereno 19 11 59 1016 10 N 5.5
Ieri h: 22:20 sereno Sereno 19 11 59 1016 10 N 5.5
Ieri h: 21:50 sereno Sereno 19 10 55 1015 10 S 7.4
Ieri h: 20:50 sereno Sereno 19 11 59 1015 10 S 7.4
Ieri h: 20:20 sereno Sereno 19 10 55 1014 10 S 7.4
Ieri h: 19:50 poco_nuvoloso Poco Nuvoloso 19 10 55 1014 10 S/SE 7.4
Ieri h: 19:20 poco_nuvoloso Poco Nuvoloso 19 10 55 1014 10 S 7.4
Ieri h: 18:50 sereno Sereno 20 10 52 1014 10 S 7.4
Ieri h: 17:50 sereno Sereno 20 9 49 1014 10 S 9.3
Ieri h: 16:50 poco_nuvoloso Poco Nuvoloso 20 10 52 1015 10 S 9.3
Ieri h: 16:20 poco_nuvoloso Poco Nuvoloso 20 8 45 1015 10 S 9.3
Ieri h: 15:50 poco_nuvoloso Poco Nuvoloso 20 8 45 1015 10 S 11.1